RYR45G EGCC-LSGG
Flight info
| Callsign | RYR45G |
|---|---|
| Flight time | N/A |
| Altitude | 35000 |
| Route | LISTO P18 TELBA L151 MID UL612 VEULE DCT PEKIM DCT PILUL DCT PIMUP/N0447F270 DCT PIXIS DCT PIBAT/N0421F230 DCT LUSAR |
| Aircraft | B38M/M-SDE1FGHILORVWXY/HB1 |
Departure
| Time | 2026-04-30 18:58 |
|---|---|
| Airport | Manchester Airport (EGCC) |
Arrival
| Time | N/A |
|---|---|
| Airport | Geneva International Airport (LSGG) |
| Time | Latitude | Longitude | Altitude | Speed | Heading |
|---|---|---|---|---|---|
| 2026-04-30 18:38 | 53.35840 | -2.27400 | 235 ft | 0 kts | 286° |
| 2026-04-30 18:48 | 53.35840 | -2.27399 | 235 ft | 1 kts | 286° |
| 2026-04-30 18:48 | 53.35836 | -2.27361 | 241 ft | 4 kts | 264° |
| 2026-04-30 18:48 | 53.35845 | -2.27325 | 239 ft | 4 kts | 214° |
| 2026-04-30 18:48 | 53.35862 | -2.27317 | 240 ft | 1 kts | 179° |
| 2026-04-30 18:49 | 53.35866 | -2.27317 | 240 ft | 0 kts | 179° |
| 2026-04-30 18:51 | 53.35851 | -2.27317 | 238 ft | 1 kts | 179° |
| 2026-04-30 18:52 | 53.35808 | -2.27317 | 237 ft | 11 kts | 187° |
| 2026-04-30 18:52 | 53.35766 | -2.27370 | 235 ft | 5 kts | 230° |
| 2026-04-30 18:52 | 53.35727 | -2.27451 | 235 ft | 13 kts | 231° |
| 2026-04-30 18:52 | 53.35649 | -2.27607 | 237 ft | 22 kts | 225° |
| 2026-04-30 18:53 | 53.35556 | -2.27759 | 235 ft | 10 kts | 225° |
| 2026-04-30 18:53 | 53.35496 | -2.27859 | 235 ft | 14 kts | 225° |
| 2026-04-30 18:53 | 53.35414 | -2.27992 | 237 ft | 19 kts | 224° |
| 2026-04-30 18:53 | 53.35305 | -2.28164 | 235 ft | 24 kts | 225° |
| 2026-04-30 18:54 | 53.35194 | -2.28402 | 235 ft | 28 kts | 225° |
| 2026-04-30 18:54 | 53.35084 | -2.28608 | 235 ft | 18 kts | 228° |
| 2026-04-30 18:54 | 53.35007 | -2.28745 | 235 ft | 13 kts | 205° |
| 2026-04-30 18:54 | 53.34968 | -2.28740 | 235 ft | 0 kts | 145° |
| 2026-04-30 18:55 | 53.34957 | -2.28727 | 237 ft | 6 kts | 145° |
| 2026-04-30 18:56 | 53.34880 | -2.28519 | 237 ft | 11 kts | 51° |
| 2026-04-30 18:56 | 53.34882 | -2.28515 | 237 ft | 0 kts | 50° |
| 2026-04-30 18:57 | 53.34884 | -2.28511 | 237 ft | 4 kts | 50° |
| 2026-04-30 18:57 | 53.35093 | -2.28078 | 234 ft | 91 kts | 51° |
| 2026-04-30 18:58 | 53.36400 | -2.25357 | 664 ft | 180 kts | 54° |
| 2026-04-30 18:58 | 53.37217 | -2.23648 | 1057 ft | 196 kts | 56° |
| 2026-04-30 18:58 | 53.37770 | -2.21597 | 1550 ft | 191 kts | 90° |
| 2026-04-30 18:59 | 53.36380 | -2.18092 | 2987 ft | 210 kts | 152° |
| 2026-04-30 19:00 | 53.31785 | -2.16872 | 5260 ft | 252 kts | 188° |
| 2026-04-30 19:00 | 53.30043 | -2.17279 | 5202 ft | 252 kts | 186° |
| 2026-04-30 19:00 | 53.26597 | -2.17920 | 5187 ft | 251 kts | 185° |
| 2026-04-30 19:01 | 53.23111 | -2.18508 | 5188 ft | 251 kts | 185° |
| 2026-04-30 19:01 | 53.21373 | -2.18790 | 5252 ft | 249 kts | 185° |
| 2026-04-30 19:02 | 53.17895 | -2.19342 | 6623 ft | 257 kts | 184° |
| 2026-04-30 19:02 | 53.14297 | -2.19910 | 7974 ft | 261 kts | 184° |
| 2026-04-30 19:03 | 53.10661 | -2.20481 | 9380 ft | 267 kts | 184° |
| 2026-04-30 19:03 | 53.06917 | -2.21066 | 10753 ft | 272 kts | 184° |
| 2026-04-30 19:04 | 53.03106 | -2.21662 | 12109 ft | 277 kts | 184° |
| 2026-04-30 19:04 | 52.99185 | -2.22271 | 13524 ft | 291 kts | 183° |
| 2026-04-30 19:05 | 52.95054 | -2.22914 | 14866 ft | 303 kts | 183° |
| 2026-04-30 19:05 | 52.90779 | -2.23576 | 16215 ft | 312 kts | 183° |
| 2026-04-30 19:06 | 52.86440 | -2.24251 | 17613 ft | 317 kts | 184° |
| 2026-04-30 19:06 | 52.84265 | -2.25000 | 18354 ft | 319 kts | 191° |
| 2026-04-30 19:06 | 52.79942 | -2.26688 | 19675 ft | 319 kts | 190° |
| 2026-04-30 19:07 | 52.75625 | -2.28348 | 21046 ft | 316 kts | 190° |
| 2026-04-30 19:07 | 52.73508 | -2.29159 | 21744 ft | 313 kts | 190° |
| 2026-04-30 19:08 | 52.69310 | -2.30765 | 23209 ft | 305 kts | 189° |
| 2026-04-30 19:08 | 52.65265 | -2.30906 | 24518 ft | 286 kts | 156° |
| 2026-04-30 19:08 | 52.63642 | -2.29100 | 25157 ft | 278 kts | 140° |
| 2026-04-30 19:09 | 52.60667 | -2.25522 | 26466 ft | 251 kts | 148° |
| 2026-04-30 19:09 | 52.59275 | -2.23998 | 27126 ft | 234 kts | 148° |
| 2026-04-30 19:09 | 52.57959 | -2.22561 | 27606 ft | 225 kts | 149° |
| 2026-04-30 19:10 | 52.55135 | -2.19548 | 26198 ft | 261 kts | 149° |
| 2026-04-30 19:10 | 52.51997 | -2.16251 | 26101 ft | 258 kts | 149° |
| 2026-04-30 19:11 | 52.50587 | -2.14748 | 27199 ft | 225 kts | 149° |
| 2026-04-30 19:11 | 52.47947 | -2.11871 | 26715 ft | 245 kts | 148° |
| 2026-04-30 19:11 | 52.46451 | -2.10230 | 25635 ft | 269 kts | 148° |
| 2026-04-30 19:12 | 52.44859 | -2.08475 | 25442 ft | 277 kts | 147° |
| 2026-04-30 19:12 | 52.43364 | -2.06801 | 26576 ft | 238 kts | 147° |
| 2026-04-30 19:12 | 52.42096 | -2.05349 | 27546 ft | 213 kts | 147° |
| 2026-04-30 19:13 | 52.39374 | -2.02161 | 26354 ft | 279 kts | 146° |
| 2026-04-30 19:13 | 52.36415 | -1.98540 | 27971 ft | 231 kts | 144° |
| 2026-04-30 19:13 | 52.35202 | -1.96961 | 28451 ft | 226 kts | 143° |
| 2026-04-30 19:14 | 52.33900 | -1.95235 | 27726 ft | 261 kts | 143° |
| 2026-04-30 19:14 | 52.32399 | -1.93214 | 27205 ft | 288 kts | 142° |
| 2026-04-30 19:14 | 52.30917 | -1.91152 | 28003 ft | 263 kts | 141° |
| 2026-04-30 19:14 | 52.29657 | -1.89305 | 29098 ft | 233 kts | 140° |
| 2026-04-30 19:15 | 52.28473 | -1.87484 | 29120 ft | 242 kts | 139° |
| 2026-04-30 19:15 | 52.25760 | -1.83081 | 28146 ft | 289 kts | 136° |
| 2026-04-30 19:15 | 52.24452 | -1.80792 | 29149 ft | 259 kts | 135° |
| 2026-04-30 19:16 | 52.23327 | -1.78681 | 29980 ft | 240 kts | 134° |
| 2026-04-30 19:16 | 52.22238 | -1.76513 | 29641 ft | 259 kts | 132° |
| 2026-04-30 19:16 | 52.19849 | -1.71400 | 29133 ft | 288 kts | 129° |
| 2026-04-30 19:17 | 52.18767 | -1.68834 | 30177 ft | 259 kts | 127° |
| 2026-04-30 19:17 | 52.16909 | -1.63868 | 30192 ft | 274 kts | 124° |
| 2026-04-30 19:17 | 52.15938 | -1.61008 | 29618 ft | 299 kts | 122° |
| 2026-04-30 19:18 | 52.14473 | -1.56091 | 30636 ft | 271 kts | 118° |
| 2026-04-30 19:18 | 52.13589 | -1.52406 | 31121 ft | 264 kts | 114° |
| 2026-04-30 19:18 | 52.12987 | -1.49456 | 30638 ft | 288 kts | 112° |
| 2026-04-30 19:19 | 52.12412 | -1.46202 | 30290 ft | 306 kts | 109° |
| 2026-04-30 19:19 | 52.11934 | -1.42871 | 30746 ft | 293 kts | 107° |
| 2026-04-30 19:19 | 52.11372 | -1.36687 | 31580 ft | 276 kts | 101° |
| 2026-04-30 19:20 | 52.11203 | -1.33431 | 31088 ft | 300 kts | 99° |
| 2026-04-30 19:20 | 52.11087 | -1.29997 | 30826 ft | 313 kts | 97° |
| 2026-04-30 19:20 | 52.11136 | -1.23245 | 31827 ft | 288 kts | 94° |
| 2026-04-30 19:21 | 52.10976 | -1.20058 | 31424 ft | 293 kts | 118° |